Redfield, Arkansas
Current Conditions -  °F | °C
As of 11:53 PM on Friday 24 Oct 2014 (Local Time) from KLIT Reporting Station
Scattered Clouds Scattered Clouds  
Wind Chill: 16°   Ceiling: Unl
Heat Index: 16°   Visibility: 10mi
Dew Point: 13°   Wind: 5mph
Humidity: 83%   Direction: 240°WSW
Pressure: 30.11"   Gusts: NA
Location:  34.45°N, 92.18°W
Report Text: KLIT 250453Z 24004KT 10SM SCT200 16/13 A3011 RMK AO2 SLP198 T01560128
Loading
Personal Weather Stations






























Interactive Weather Map
Tropical Storm Tracking
New forecast layout! Learn more

10-Day Weather Forecast

Advertisements
Track Severe Weather on mobile